• Join FlightAware (Why Join?)
  • Login
  • US Flag 
03:07AM EDT


 

Airport Tracker/Info


-or-


 

Live Flight TrackerFlight Track Log ✈ SBS3556 ✈ 06-Apr-2014 ✈ TJSJ / SJU - TISX / STX

Flight Track Log - Related Links

Times and Time Zones

All times are in EDT time to prevent confusion due to time zone crossing. See the SBS3556 flight status page for this flight to view local times or setup timezone preferences in your user account.

Time Position Orientation Groundspeed Altitude Reporting Facility
EDT Latitude Longitude Course Direction KTS MPH feet Rate Location/Type
01:06PM 18.4500 -65.9667 58° Northeast 150 173 1,900  Level San Juan Center
01:08PM 18.5000 -65.8833 58° Northeast 180 207 5,600 1,800 Climbing San Juan Center
01:09PM 18.4833 -65.8333 109° East 150 173 7,300 1,680 Climbing San Juan Center
01:10PM 18.4500 -65.8000 137° Southeast 180 207 9,000 840 Climbing San Juan Center
01:11PM 18.4000 -65.7500 136° Southeast 220 253 9,000  Level San Juan Center
01:12PM 18.3500 -65.7000 136° Southeast 250 288 9,000  Level San Juan Center
01:13PM 18.3167 -65.6500 125° Southeast 260 299 9,000  Level San Juan Center
01:14PM 18.2667 -65.5833 128° Southeast 260 299 9,000  Level San Juan Center
01:15PM 18.2167 -65.5333 136° Southeast 260 299 9,000  Level San Juan Center
01:16PM 18.1667 -65.4667 128° Southeast 260 299 9,000  Level San Juan Center
01:17PM 18.1167 -65.4167 136° Southeast 260 299 9,000  Level San Juan Center
01:18PM 18.0667 -65.3500 128° Southeast 270 311 9,000  Level San Juan Center
01:19PM 18.0333 -65.3000 125° Southeast 260 299 9,000 -780 Level San Juan Center
01:20PM 17.9667 -65.2333 136° Southeast 270 311 7,500 -1,380 Descending San Juan Center
01:21PM 17.9333 -65.1833 125° Southeast 250 288 6,300 -1,380 Descending San Juan Center
01:22PM 17.8833 -65.1167 128° Southeast 240 276 4,800 -1,500 Descending San Juan Center
01:23PM 17.8500 -65.0667 125° Southeast 240 276 3,300 -1,260 Descending San Juan Center
01:24PM 17.8000 -65.0167 136° Southeast 230 265 2,300 -660 Descending San Juan Center
01:25PM 17.7500 -64.9667 136° Southeast 210 242 2,000 -300 Descending San Juan Center
01:26PM 17.7167 -64.9333 136° Southeast 200 230 1,700 -240 Descending San Juan Center
01:27PM 17.6833 -64.9000 136° Southeast 200 230 1,600 -420 Descending San Juan Center
01:28PM 17.6833 -64.8500 90° East 160 184 900 -660 Descending San Juan Center
01:29PM 17.7000 -64.8167 62° Northeast 130 150 300 -600 Descending San Juan Center
01:31PM 17.7000 -64.8000 180° South  Level FlightAware Approximate
01:38PM 17.7019 -64.7986 334° Northwest  Level Estimated
01:39PM 17.7000 -64.8000 180° South  Level FlightAware Approximate